createdAt,value
2022-12-17T00:00:52.554Z,35.33
2022-12-17T00:02:43.268Z,36.13
2022-12-17T00:04:35.236Z,40.23
2022-12-17T00:06:25.752Z,40.07
2022-12-17T00:08:16.605Z,33.33
2022-12-17T00:10:07.082Z,39.87
2022-12-17T00:11:57.426Z,39.57
2022-12-17T00:13:57.440Z,40.33
2022-12-17T00:15:47.950Z,45.90
2022-12-17T00:17:41.243Z,38.53
2022-12-17T00:19:46.289Z,34.20
2022-12-17T00:21:38.230Z,40.23
2022-12-17T00:23:28.881Z,40.33
2022-12-17T00:25:19.696Z,39.20
2022-12-17T00:27:10.314Z,37.23
2022-12-17T00:29:00.733Z,37.07
2022-12-17T00:30:51.170Z,37.50
2022-12-17T00:32:42.628Z,42.77
2022-12-17T00:34:33.624Z,40.77
2022-12-17T00:36:24.556Z,35.47
2022-12-17T00:38:16.677Z,37.27
2022-12-17T00:40:07.077Z,39.77
2022-12-17T00:41:57.724Z,41.83
2022-12-17T00:43:48.173Z,38.13
2022-12-17T00:45:38.762Z,40.53
2022-12-17T00:47:41.165Z,42.37
2022-12-17T00:49:31.922Z,33.17
2022-12-17T00:51:22.821Z,41.90
2022-12-17T00:53:13.429Z,34.10
2022-12-17T00:55:05.028Z,33.73
2022-12-17T00:56:56.271Z,43.53
2022-12-17T00:58:46.482Z,38.10
2022-12-17T01:00:37.472Z,39.50
2022-12-17T01:02:28.180Z,42.50
2022-12-17T01:04:18.477Z,37.70
2022-12-17T01:06:09.054Z,35.33
2022-12-17T01:08:00.587Z,40.53
2022-12-17T01:09:51.142Z,38.30
2022-12-17T01:11:43.031Z,34.77
2022-12-17T01:13:33.899Z,36.17
2022-12-17T01:15:25.344Z,32.80
2022-12-17T01:17:15.753Z,35.97
2022-12-17T01:19:06.354Z,39.03
2022-12-17T01:21:11.446Z,37.20
2022-12-17T01:23:02.079Z,37.57
2022-12-17T01:24:54.953Z,36.43
2022-12-17T01:26:47.820Z,34.60
2022-12-17T01:28:41.177Z,36.87
2022-12-17T01:30:31.579Z,40.03
2022-12-17T01:32:22.090Z,31.00
2022-12-17T01:34:12.485Z,35.77
2022-12-17T01:36:03.014Z,37.77
2022-12-17T01:37:53.506Z,33.60
2022-12-17T01:39:44.503Z,34.60
2022-12-17T01:41:38.350Z,38.60
2022-12-17T01:43:31.426Z,36.58
2022-12-17T01:45:22.434Z,34.47
2022-12-17T01:47:13.340Z,31.70
2022-12-17T01:49:06.550Z,36.90
2022-12-17T01:50:59.834Z,30.30
2022-12-17T01:52:50.264Z,40.33
2022-12-17T01:54:41.142Z,28.50
2022-12-17T01:56:32.064Z,33.00
2022-12-17T01:58:22.460Z,37.63
2022-12-17T02:00:17.862Z,31.50
2022-12-17T02:02:08.562Z,26.40
2022-12-17T02:03:59.577Z,32.63
2022-12-17T02:05:59.253Z,39.17
2022-12-17T02:08:04.465Z,36.40
2022-12-17T02:10:01.156Z,28.27
2022-12-17T02:11:58.508Z,27.00
2022-12-17T02:13:51.612Z,25.30
2022-12-17T02:15:49.593Z,34.00
2022-12-17T02:17:43.619Z,29.13
2022-12-17T02:19:45.477Z,31.10
2022-12-17T02:21:37.986Z,26.93
2022-12-17T02:23:40.494Z,30.07
2022-12-17T02:25:40.487Z,30.53
2022-12-17T02:27:33.597Z,33.83
2022-12-17T02:29:27.115Z,31.13
2022-12-17T02:31:29.640Z,29.92
2022-12-17T02:33:21.236Z,30.23
2022-12-17T02:35:12.373Z,25.43
2022-12-17T02:37:02.734Z,31.33
2022-12-17T02:39:07.810Z,33.70
2022-12-17T02:40:59.011Z,26.93
2022-12-17T02:42:51.220Z,31.83
2022-12-17T02:44:42.839Z,30.73
2022-12-17T02:46:33.761Z,32.60
2022-12-17T02:48:25.943Z,30.70
2022-12-17T02:50:16.174Z,30.43
2022-12-17T02:52:07.258Z,33.77
2022-12-17T02:54:02.892Z,33.77
2022-12-17T02:55:54.801Z,31.60
2022-12-17T02:57:48.475Z,32.97
2022-12-17T02:59:43.982Z,34.00
2022-12-17T03:01:34.544Z,33.30
2022-12-17T03:03:25.533Z,31.57
2022-12-17T03:05:43.547Z,28.97
2022-12-17T03:07:25.947Z,32.50
2022-12-17T03:09:16.536Z,35.20
2022-12-17T03:11:06.981Z,34.00
2022-12-17T03:12:57.754Z,30.13
2022-12-17T03:14:49.657Z,31.23
2022-12-17T03:16:40.312Z,31.73
2022-12-17T03:18:30.950Z,38.67
2022-12-17T03:20:21.853Z,33.40
2022-12-17T03:22:12.684Z,34.57
2022-12-17T03:24:03.141Z,38.07
2022-12-17T03:25:54.130Z,36.80
2022-12-17T03:27:44.573Z,30.57
2022-12-17T03:29:35.225Z,35.63
2022-12-17T03:31:27.223Z,26.07
2022-12-17T03:33:17.638Z,37.50
2022-12-17T03:35:08.178Z,36.60
2022-12-17T03:36:59.333Z,32.23
2022-12-17T03:38:49.903Z,33.03
2022-12-17T03:40:40.365Z,32.23
2022-12-17T03:42:31.246Z,26.87
2022-12-17T03:44:21.601Z,36.60
2022-12-17T03:46:12.572Z,35.00
2022-12-17T03:48:04.415Z,35.20
2022-12-17T03:49:55.461Z,36.73
2022-12-17T03:51:46.103Z,35.40
2022-12-17T03:53:36.716Z,35.63
2022-12-17T03:55:27.768Z,38.90
2022-12-17T03:57:18.174Z,33.63
2022-12-17T03:59:08.852Z,37.30
2022-12-17T04:00:59.442Z,33.63
2022-12-17T04:02:49.937Z,39.87
2022-12-17T04:04:41.634Z,34.87
2022-12-17T04:06:32.098Z,40.00
2022-12-17T04:08:34.517Z,35.67
2022-12-17T04:10:25.078Z,34.47
2022-12-17T04:12:16.033Z,43.17
2022-12-17T04:14:06.537Z,36.07
2022-12-17T04:15:57.669Z,33.40
2022-12-17T04:17:47.965Z,34.43
2022-12-17T04:19:38.540Z,33.90
2022-12-17T04:21:30.465Z,34.90
2022-12-17T04:23:21.058Z,44.03
2022-12-17T04:25:11.493Z,37.00
2022-12-17T04:27:02.133Z,34.07
2022-12-17T04:28:52.700Z,39.80
2022-12-17T04:30:43.714Z,35.20
2022-12-17T04:32:35.499Z,38.33
2022-12-17T04:34:26.901Z,34.20
2022-12-17T04:36:17.442Z,30.60
2022-12-17T04:38:09.031Z,34.70
2022-12-17T04:39:59.590Z,38.20
2022-12-17T04:41:51.015Z,34.20
2022-12-17T04:43:41.490Z,34.90
2022-12-17T04:45:32.372Z,35.13
2022-12-17T04:47:22.929Z,36.20
2022-12-17T04:49:13.917Z,36.77
2022-12-17T04:51:04.342Z,38.60
2022-12-17T04:52:55.489Z,37.60
2022-12-17T04:54:47.413Z,39.17
2022-12-17T04:56:38.597Z,33.27
2022-12-17T04:58:29.037Z,36.37
2022-12-17T05:00:19.619Z,29.70
2022-12-17T05:02:10.326Z,38.83
2022-12-17T05:04:06.471Z,37.00
2022-12-17T05:05:57.094Z,36.73
2022-12-17T05:07:47.666Z,35.10
2022-12-17T05:09:38.935Z,36.80
2022-12-17T05:11:30.799Z,36.77
2022-12-17T05:13:24.157Z,39.73
2022-12-17T05:15:14.611Z,32.63
2022-12-17T05:17:05.203Z,32.47
2022-12-17T05:18:55.731Z,39.87
2022-12-17T05:20:46.689Z,30.47
2022-12-17T05:22:37.307Z,42.37
2022-12-17T05:24:28.013Z,41.80
2022-12-17T05:26:22.958Z,34.80
2022-12-17T05:28:14.704Z,34.27
2022-12-17T05:30:05.193Z,39.73
2022-12-17T05:31:56.149Z,37.13
2022-12-17T05:33:46.936Z,39.40
2022-12-17T05:35:37.531Z,35.23
2022-12-17T05:37:28.049Z,33.60
2022-12-17T05:39:18.966Z,33.77
2022-12-17T05:41:09.466Z,39.30
2022-12-17T05:42:59.926Z,32.77
2022-12-17T05:44:51.852Z,41.47
2022-12-17T05:46:42.473Z,46.53
2022-12-17T05:48:32.878Z,38.70
2022-12-17T05:50:38.621Z,39.40
2022-12-17T05:52:29.245Z,37.87
2022-12-17T05:54:19.321Z,36.37
2022-12-17T05:56:10.086Z,38.57
2022-12-17T05:58:00.653Z,42.60
2022-12-17T05:59:52.538Z,38.13
2022-12-17T06:01:43.221Z,33.87
2022-12-17T06:03:33.873Z,37.57
2022-12-17T06:05:25.172Z,46.23
2022-12-17T06:07:15.757Z,40.67
2022-12-17T06:09:06.142Z,35.67
2022-12-17T06:10:56.532Z,34.23
2022-12-17T06:12:52.778Z,38.43
2022-12-17T06:14:43.421Z,39.57
2022-12-17T06:16:35.354Z,35.83
2022-12-17T06:18:27.217Z,39.13
2022-12-17T06:20:17.731Z,40.10
2022-12-17T06:22:13.446Z,40.40
2022-12-17T06:24:15.566Z,36.03
2022-12-17T06:26:06.356Z,34.10
2022-12-17T06:27:57.354Z,35.60
2022-12-17T06:29:47.901Z,33.47
2022-12-17T06:31:39.783Z,34.90
2022-12-17T06:33:30.684Z,38.00
2022-12-17T06:35:21.287Z,29.93
2022-12-17T06:37:11.895Z,30.23
2022-12-17T06:39:02.345Z,39.67
2022-12-17T06:40:52.787Z,33.27
2022-12-17T06:42:43.275Z,31.40
2022-12-17T06:44:48.646Z,35.43
2022-12-17T06:46:38.968Z,37.60
2022-12-17T06:48:30.010Z,33.90
2022-12-17T06:50:20.528Z,43.50
2022-12-17T06:52:10.954Z,36.07
2022-12-17T06:54:02.000Z,35.97
2022-12-17T06:55:53.556Z,35.13
2022-12-17T06:57:47.497Z,34.50
2022-12-17T06:59:40.555Z,28.63
2022-12-17T07:01:32.382Z,33.80
2022-12-17T07:03:23.127Z,33.57
2022-12-17T07:05:13.915Z,35.23
2022-12-17T07:07:04.462Z,36.03
2022-12-17T07:08:55.385Z,31.60
2022-12-17T07:10:47.391Z,36.93
2022-12-17T07:12:37.958Z,32.93
2022-12-17T07:14:28.503Z,35.03
2022-12-17T07:16:18.955Z,32.80
2022-12-17T07:18:17.944Z,32.90
2022-12-17T07:20:09.048Z,36.43
2022-12-17T07:21:59.549Z,32.80
2022-12-17T07:23:50.653Z,35.53
2022-12-17T07:25:45.812Z,39.60
2022-12-17T07:27:39.032Z,36.27
2022-12-17T07:29:29.456Z,34.20
2022-12-17T07:31:20.090Z,37.30
2022-12-17T07:33:18.496Z,37.57
2022-12-17T07:35:08.984Z,39.63
2022-12-17T07:36:59.498Z,36.03
2022-12-17T07:38:50.375Z,38.57
2022-12-17T07:40:41.477Z,39.60
2022-12-17T07:42:32.064Z,36.70
2022-12-17T07:44:22.928Z,38.10
2022-12-17T07:46:13.545Z,39.60
2022-12-17T07:48:11.220Z,33.23
2022-12-17T07:50:02.940Z,37.80
2022-12-17T07:51:49.724Z,36.43
2022-12-17T07:53:46.238Z,34.47
2022-12-17T07:55:36.939Z,35.27
2022-12-17T07:57:27.421Z,31.27
2022-12-17T07:59:17.912Z,36.63
2022-12-17T08:01:08.471Z,34.63
2022-12-17T08:02:58.882Z,37.20
2022-12-17T08:04:49.249Z,30.40
2022-12-17T08:06:58.351Z,37.60
2022-12-17T08:08:51.258Z,32.70
2022-12-17T08:10:41.899Z,37.03
2022-12-17T08:12:32.475Z,35.57
2022-12-17T08:14:23.403Z,37.60
2022-12-17T08:16:14.534Z,38.07
2022-12-17T08:18:05.231Z,35.03
2022-12-17T08:19:55.801Z,37.43
2022-12-17T08:21:47.581Z,36.20
2022-12-17T08:23:38.489Z,36.13
2022-12-17T08:25:29.440Z,35.53
2022-12-17T08:27:20.130Z,39.13
2022-12-17T08:29:10.742Z,37.33
2022-12-17T08:31:01.890Z,32.63
2022-12-17T08:33:00.930Z,33.53
2022-12-17T08:34:51.548Z,37.97
2022-12-17T08:36:42.345Z,34.53
2022-12-17T08:38:34.152Z,39.60
2022-12-17T08:40:25.407Z,38.93
2022-12-17T08:42:16.086Z,33.83
2022-12-17T08:44:06.275Z,40.57
2022-12-17T08:45:57.066Z,33.53
2022-12-17T08:47:47.475Z,39.87
2022-12-17T08:49:38.518Z,36.20
2022-12-17T08:51:29.055Z,31.13
2022-12-17T08:53:21.645Z,32.40
2022-12-17T08:55:13.274Z,33.27
2022-12-17T08:57:03.805Z,40.40
2022-12-17T08:58:58.813Z,30.20
2022-12-17T09:00:50.309Z,38.23
2022-12-17T09:02:41.567Z,35.47
2022-12-17T09:04:32.187Z,33.03
2022-12-17T09:06:23.066Z,32.50
2022-12-17T09:08:18.316Z,35.40
2022-12-17T09:10:09.278Z,34.77
2022-12-17T09:12:01.470Z,39.97
2022-12-17T09:13:52.207Z,35.97
2022-12-17T09:15:42.928Z,36.60
2022-12-17T09:17:33.419Z,38.83
2022-12-17T09:19:24.606Z,30.27
2022-12-17T09:21:15.016Z,30.60
2022-12-17T09:23:05.617Z,30.10
2022-12-17T09:24:56.213Z,35.37
2022-12-17T09:26:46.771Z,31.77
2022-12-17T09:28:38.346Z,36.00
2022-12-17T09:30:29.922Z,38.57
2022-12-17T09:32:20.197Z,33.50
2022-12-17T09:34:10.722Z,36.97
2022-12-17T09:36:01.366Z,39.67
2022-12-17T09:37:52.598Z,33.93
2022-12-17T09:39:43.217Z,41.07
2022-12-17T09:41:43.631Z,37.30
2022-12-17T09:43:47.070Z,39.43
2022-12-17T09:45:42.143Z,33.43
2022-12-17T09:47:48.134Z,38.03
2022-12-17T09:49:41.161Z,35.63
2022-12-17T09:51:40.789Z,41.27
2022-12-17T09:53:40.305Z,40.47
2022-12-17T09:55:49.841Z,43.47
2022-12-17T09:57:44.592Z,40.37
2022-12-17T09:59:39.539Z,38.23
2022-12-17T10:01:35.494Z,35.37
2022-12-17T10:03:30.780Z,32.27
2022-12-17T10:05:23.690Z,40.67
2022-12-17T10:07:14.222Z,37.33
2022-12-17T10:09:05.770Z,35.80
2022-12-17T10:11:02.806Z,38.60
2022-12-17T10:12:53.849Z,35.90
2022-12-17T10:14:45.968Z,38.40
2022-12-17T10:16:44.594Z,37.90
2022-12-17T10:18:36.158Z,36.20
2022-12-17T10:20:36.738Z,39.37
2022-12-17T10:22:29.203Z,41.77
2022-12-17T10:24:27.178Z,39.70
2022-12-17T10:26:17.555Z,34.40
2022-12-17T10:28:08.591Z,36.27
2022-12-17T10:30:02.183Z,35.87
2022-12-17T10:31:52.571Z,36.25
2022-12-17T10:33:43.035Z,35.80
2022-12-17T10:35:50.166Z,41.30
2022-12-17T10:37:41.022Z,39.97
2022-12-17T10:39:35.523Z,40.93
2022-12-17T10:41:41.286Z,39.93
2022-12-17T10:43:43.076Z,43.70
2022-12-17T10:45:43.382Z,35.70
2022-12-17T10:47:35.838Z,40.53
2022-12-17T10:49:31.370Z,39.07
2022-12-17T10:51:22.269Z,35.80
2022-12-17T10:53:12.682Z,39.33
2022-12-17T10:55:13.353Z,38.50
2022-12-17T10:57:11.299Z,41.37
2022-12-17T10:59:04.298Z,38.03
2022-12-17T11:00:58.824Z,41.20
2022-12-17T11:02:57.780Z,44.00
2022-12-17T11:04:50.491Z,42.07
2022-12-17T11:06:45.425Z,38.43
2022-12-17T11:08:37.355Z,37.63
2022-12-17T11:10:35.584Z,44.03
2022-12-17T11:12:31.187Z,43.57
2022-12-17T11:14:24.373Z,45.03
2022-12-17T11:16:18.683Z,45.00
2022-12-17T11:20:07.024Z,43.30
2022-12-17T11:22:04.597Z,42.67
2022-12-17T11:24:00.172Z,37.87
2022-12-17T11:25:57.823Z,43.90
2022-12-17T11:27:54.441Z,38.10
2022-12-17T11:29:45.559Z,37.80
2022-12-17T11:31:58.186Z,39.70
2022-12-17T11:33:58.160Z,48.03
2022-12-17T11:35:53.907Z,46.03
2022-12-17T11:37:49.831Z,48.67
2022-12-17T11:39:57.314Z,42.43
2022-12-17T11:41:57.486Z,44.27
2022-12-17T11:43:56.640Z,39.60
2022-12-17T11:45:53.041Z,43.10
2022-12-17T11:47:58.900Z,41.73
2022-12-17T11:49:58.912Z,41.80
2022-12-17T11:51:57.887Z,41.70
2022-12-17T11:54:05.097Z,43.60
2022-12-17T11:56:11.961Z,42.53
2022-12-17T11:58:11.055Z,42.70
2022-12-17T12:00:07.745Z,39.10
2022-12-17T12:02:04.354Z,43.60
2022-12-17T12:04:07.206Z,42.77
2022-12-17T12:06:05.444Z,41.97
2022-12-17T12:08:01.370Z,41.63
2022-12-17T12:10:00.544Z,45.03
2022-12-17T12:11:58.124Z,40.83
2022-12-17T12:13:57.290Z,41.13
2022-12-17T12:15:58.123Z,45.23
2022-12-17T12:18:02.517Z,43.13
2022-12-17T12:20:02.067Z,47.05
2022-12-17T12:21:58.832Z,46.63
2022-12-17T12:23:59.139Z,48.30
2022-12-17T12:25:54.540Z,43.30
2022-12-17T12:27:53.680Z,44.70
2022-12-17T12:29:52.312Z,47.80
2022-12-17T12:31:51.607Z,45.07
2022-12-17T12:33:50.313Z,46.70
2022-12-17T12:35:45.848Z,46.33
2022-12-17T12:37:39.312Z,47.03
2022-12-17T12:39:32.231Z,49.67
2022-12-17T12:41:30.933Z,45.87
2022-12-17T12:43:29.436Z,47.30
2022-12-17T12:45:25.614Z,48.87
2022-12-17T12:47:20.304Z,48.97
2022-12-17T12:49:17.348Z,52.00
2022-12-17T12:51:16.011Z,47.47
2022-12-17T12:53:07.126Z,48.93
2022-12-17T12:55:10.856Z,43.20
2022-12-17T12:57:03.529Z,48.43
2022-12-17T12:58:54.681Z,54.10
2022-12-17T13:00:54.055Z,47.33
2022-12-17T13:02:47.802Z,45.37
2022-12-17T13:04:49.673Z,55.97
2022-12-17T13:06:46.340Z,46.43
2022-12-17T13:08:23.274Z,46.47
2022-12-17T13:09:57.935Z,48.07
2022-12-17T13:11:38.924Z,49.70
2022-12-17T13:13:18.462Z,50.00
2022-12-17T13:14:56.940Z,43.97
2022-12-17T13:16:34.825Z,46.97
2022-12-17T13:18:20.573Z,50.53
2022-12-17T13:20:02.065Z,45.67
2022-12-17T13:21:35.946Z,45.63
2022-12-17T13:23:27.439Z,47.13
2022-12-17T13:25:18.537Z,42.53
2022-12-17T13:26:51.853Z,44.33
2022-12-17T13:28:30.728Z,39.58
2022-12-17T13:30:21.370Z,42.13
2022-12-17T13:32:16.869Z,40.50
2022-12-17T13:33:57.932Z,46.07
2022-12-17T13:35:38.122Z,44.00
2022-12-17T13:37:20.947Z,47.80
2022-12-17T13:39:03.524Z,48.78
2022-12-17T13:40:45.193Z,47.23
2022-12-17T13:42:21.176Z,47.00
2022-12-17T13:43:56.959Z,42.37
2022-12-17T13:45:33.796Z,46.53
2022-12-17T13:47:07.478Z,46.47
2022-12-17T13:48:41.554Z,49.83
2022-12-17T13:50:33.788Z,44.57
2022-12-17T13:52:17.549Z,44.87
2022-12-17T13:53:56.446Z,48.35
2022-12-17T13:55:30.643Z,43.00
2022-12-17T13:57:11.018Z,40.20
2022-12-17T13:58:44.220Z,41.93
2022-12-17T14:00:23.756Z,48.75
2022-12-17T14:01:56.707Z,43.70
2022-12-17T14:03:43.391Z,44.87
2022-12-17T14:05:28.624Z,45.80
2022-12-17T14:07:06.262Z,49.60
2022-12-17T14:08:40.686Z,47.40
2022-12-17T14:10:19.016Z,48.10
2022-12-17T14:12:09.941Z,48.77
2022-12-17T14:13:43.285Z,45.83
2022-12-17T14:15:24.474Z,46.15
2022-12-17T14:16:57.747Z,48.27
2022-12-17T14:18:30.738Z,51.22
2022-12-17T14:20:08.419Z,52.88
2022-12-17T14:21:41.561Z,57.23
2022-12-17T14:23:22.908Z,43.35
2022-12-17T14:24:55.982Z,47.53
2022-12-17T14:26:30.379Z,44.58
2022-12-17T14:28:05.126Z,46.53
2022-12-17T14:29:47.520Z,44.33
2022-12-17T14:31:28.220Z,49.30
2022-12-17T14:33:01.709Z,43.70
2022-12-17T14:34:42.466Z,46.95
2022-12-17T14:36:22.157Z,49.73
2022-12-17T14:37:55.500Z,47.33
2022-12-17T14:39:32.287Z,45.60
2022-12-17T14:41:30.760Z,47.63
2022-12-17T14:43:04.354Z,48.10
2022-12-17T14:44:42.797Z,43.03
2022-12-17T14:46:22.539Z,45.10
2022-12-17T14:47:58.299Z,48.43
2022-12-17T14:49:31.225Z,45.33
2022-12-17T14:51:04.241Z,52.05
2022-12-17T14:52:43.249Z,47.25
2022-12-17T14:54:20.844Z,46.47
2022-12-17T14:55:56.258Z,42.93
2022-12-17T14:57:29.242Z,46.13
2022-12-17T14:59:03.451Z,41.92
2022-12-17T15:00:38.282Z,48.43
2022-12-17T15:02:26.204Z,47.57
2022-12-17T15:03:59.466Z,46.53
2022-12-17T15:05:32.666Z,49.80
2022-12-17T15:07:10.847Z,43.50
2022-12-17T15:08:47.569Z,50.50
2022-12-17T15:10:21.778Z,49.53
2022-12-17T15:11:54.842Z,47.90
2022-12-17T15:13:27.758Z,52.47
2022-12-17T15:15:02.132Z,52.10
2022-12-17T15:16:35.123Z,49.20
2022-12-17T15:18:08.116Z,48.30
2022-12-17T15:19:41.068Z,51.67
2022-12-17T15:21:14.556Z,47.90
2022-12-17T15:22:47.999Z,48.50
2022-12-17T15:25:55.727Z,52.13
2022-12-17T15:27:28.730Z,55.50
2022-12-17T15:29:02.440Z,53.22
2022-12-17T15:30:36.766Z,60.67
2022-12-17T15:32:12.904Z,59.10
2022-12-17T15:33:45.809Z,54.03
2022-12-17T15:35:18.774Z,59.13
2022-12-17T15:36:51.682Z,50.95
2022-12-17T15:38:24.631Z,66.50
2022-12-17T15:39:57.520Z,49.72
2022-12-17T15:41:47.709Z,51.05
2022-12-17T15:43:20.817Z,52.60
2022-12-17T15:44:54.293Z,56.35
2022-12-17T15:46:30.000Z,58.67
2022-12-17T15:48:03.789Z,61.20
2022-12-17T15:49:36.748Z,54.63
2022-12-17T15:51:11.143Z,56.17
2022-12-17T15:52:45.845Z,57.60
2022-12-17T15:54:18.767Z,53.78
2022-12-17T15:55:51.798Z,55.08
2022-12-17T15:57:25.081Z,54.92
2022-12-17T15:58:58.571Z,55.97
2022-12-17T16:00:31.445Z,50.67
2022-12-17T16:02:06.000Z,61.80
2022-12-17T16:03:39.090Z,56.20
2022-12-17T16:05:12.471Z,59.00
2022-12-17T16:08:19.119Z,53.70
2022-12-17T16:09:52.186Z,58.00
2022-12-17T16:11:25.171Z,59.55
2022-12-17T16:12:58.148Z,61.58
2022-12-17T16:14:31.224Z,62.35
2022-12-17T16:16:04.807Z,57.92
2022-12-17T16:17:39.240Z,54.30
2022-12-17T16:19:12.118Z,57.43
2022-12-17T16:20:45.101Z,56.25
2022-12-17T16:22:18.075Z,62.22
2022-12-17T16:23:51.060Z,61.13
2022-12-17T16:25:24.022Z,64.55
2022-12-17T16:27:02.466Z,60.50
2022-12-17T16:28:38.605Z,60.50
2022-12-17T16:30:13.246Z,64.90
2022-12-17T16:31:46.545Z,61.70
2022-12-17T16:33:20.929Z,64.78
2022-12-17T16:34:53.849Z,63.13
2022-12-17T16:36:26.766Z,62.85
2022-12-17T16:37:59.799Z,67.75
2022-12-17T16:39:33.213Z,64.75
2022-12-17T16:42:44.261Z,64.37
2022-12-17T16:44:17.095Z,60.83
2022-12-17T16:45:51.755Z,61.50
2022-12-17T16:47:26.101Z,67.43
2022-12-17T16:49:05.456Z,68.57
2022-12-17T16:50:38.322Z,69.27
2022-12-17T16:52:11.251Z,69.80
2022-12-17T16:53:45.216Z,69.88
2022-12-17T16:55:18.294Z,70.77
2022-12-17T16:56:51.559Z,71.03
2022-12-17T16:58:24.464Z,62.22
2022-12-17T16:59:57.380Z,64.72
2022-12-17T17:01:30.763Z,64.65
2022-12-17T17:04:39.232Z,65.37
2022-12-17T17:06:12.115Z,66.73
2022-12-17T17:07:44.972Z,68.35
2022-12-17T17:09:19.497Z,61.63
2022-12-17T17:10:52.379Z,66.87
2022-12-17T17:12:26.438Z,69.97
2022-12-17T17:13:59.328Z,66.23
2022-12-17T17:15:32.501Z,74.80
2022-12-17T17:17:05.337Z,65.63
2022-12-17T17:18:38.977Z,72.82
2022-12-17T17:20:14.082Z,72.37
2022-12-17T17:21:51.780Z,74.60
2022-12-17T17:23:24.721Z,67.00
2022-12-17T17:24:57.629Z,71.65
2022-12-17T17:26:33.297Z,68.75
2022-12-17T17:28:06.172Z,81.43
2022-12-17T17:29:39.129Z,73.20
2022-12-17T17:31:12.742Z,77.63
2022-12-17T17:32:45.822Z,73.60
2022-12-17T17:34:18.836Z,71.75
2022-12-17T17:35:54.210Z,75.13
2022-12-17T17:37:27.891Z,69.97
2022-12-17T17:39:02.396Z,76.50
2022-12-17T17:40:35.245Z,74.30
2022-12-17T17:42:08.147Z,72.85
2022-12-17T17:43:41.250Z,71.50
2022-12-17T17:45:14.165Z,78.70
2022-12-17T17:46:47.131Z,76.60
2022-12-17T17:48:20.502Z,75.55
2022-12-17T17:51:59.915Z,62.47
2022-12-17T17:53:22.437Z,70.97
2022-12-17T17:54:55.311Z,75.43
2022-12-17T17:56:30.348Z,70.18
2022-12-17T17:58:03.238Z,73.23
2022-12-17T17:59:36.079Z,78.13
2022-12-17T18:01:10.125Z,73.03
2022-12-17T18:02:43.301Z,69.53
2022-12-17T18:04:18.630Z,69.80
2022-12-17T18:05:51.603Z,73.63
2022-12-17T18:07:26.925Z,70.40
2022-12-17T18:09:00.893Z,69.63
2022-12-17T18:12:21.076Z,70.87
2022-12-17T18:13:56.765Z,70.20
2022-12-17T18:15:28.743Z,74.40
2022-12-17T18:17:01.673Z,73.10
2022-12-17T18:18:34.686Z,77.50
2022-12-17T18:20:09.522Z,69.60
2022-12-17T18:21:42.725Z,70.83
2022-12-17T18:23:17.022Z,81.63
2022-12-17T18:24:49.896Z,74.20
2022-12-17T18:26:24.534Z,76.63
2022-12-17T18:27:57.434Z,77.53
2022-12-17T18:29:32.210Z,91.28
2022-12-17T18:31:13.355Z,81.90
2022-12-17T18:32:46.653Z,86.70
2022-12-17T18:34:21.999Z,92.30
2022-12-17T18:35:54.972Z,98.13
2022-12-17T18:37:27.884Z,90.55
2022-12-17T18:39:04.861Z,96.53
2022-12-17T18:40:37.805Z,85.50
2022-12-17T18:42:28.003Z,83.55
2022-12-17T18:44:01.542Z,75.67
2022-12-17T18:45:38.193Z,81.73
2022-12-17T18:47:11.720Z,82.30
2022-12-17T18:48:43.709Z,78.97
2022-12-17T18:50:16.617Z,78.13
2022-12-17T18:51:51.117Z,84.22
2022-12-17T18:53:25.561Z,86.67
2022-12-17T18:55:00.130Z,75.10
2022-12-17T18:57:00.024Z,80.70
2022-12-17T18:58:26.289Z,74.90
2022-12-17T18:59:59.177Z,78.50
2022-12-17T19:01:35.337Z,74.65
2022-12-17T19:03:09.999Z,73.53
2022-12-17T19:04:43.552Z,80.77
2022-12-17T19:06:17.052Z,85.07
2022-12-17T19:07:49.958Z,76.23
2022-12-17T19:09:25.741Z,81.18
2022-12-17T19:11:06.747Z,69.23
2022-12-17T19:12:39.712Z,79.63
2022-12-17T19:14:12.711Z,88.80
2022-12-17T19:17:18.666Z,66.70
2022-12-17T19:18:53.599Z,71.60
2022-12-17T19:20:26.535Z,72.17
2022-12-17T19:22:00.190Z,79.50
2022-12-17T19:23:33.886Z,75.50
2022-12-17T19:25:07.222Z,81.50
2022-12-17T19:26:41.705Z,77.15
2022-12-17T19:28:14.642Z,83.60
2022-12-17T19:29:49.716Z,83.93
2022-12-17T19:31:24.802Z,91.13
2022-12-17T19:32:57.962Z,94.17
2022-12-17T19:34:35.012Z,84.05
2022-12-17T19:36:10.326Z,92.07
2022-12-17T19:37:43.221Z,89.10
2022-12-17T19:39:18.864Z,86.53
2022-12-17T19:40:52.236Z,90.77
2022-12-17T19:42:33.397Z,86.70
2022-12-17T19:44:13.490Z,87.18
2022-12-17T19:45:46.492Z,88.83
2022-12-17T19:47:19.488Z,87.60
2022-12-17T19:48:53.640Z,96.25
2022-12-17T19:50:30.165Z,93.97
2022-12-17T19:52:03.123Z,98.60
2022-12-17T19:53:37.090Z,104.07
2022-12-17T19:55:10.586Z,106.50
2022-12-17T19:56:44.778Z,103.83
2022-12-17T19:58:19.104Z,101.93
2022-12-17T19:59:51.978Z,98.60
2022-12-17T20:01:27.591Z,112.75
2022-12-17T20:03:00.703Z,100.70
2022-12-17T20:04:33.909Z,105.03
2022-12-17T20:06:07.883Z,107.50
2022-12-17T20:07:41.144Z,97.93
2022-12-17T20:09:14.784Z,88.00
2022-12-17T20:10:47.721Z,87.97
2022-12-17T20:12:20.674Z,85.75
2022-12-17T20:13:55.828Z,90.43
2022-12-17T20:15:28.744Z,93.93
2022-12-17T20:17:02.708Z,88.55
2022-12-17T20:18:35.879Z,83.30
2022-12-17T20:20:10.165Z,79.70
2022-12-17T20:21:43.346Z,83.00
2022-12-17T20:23:16.322Z,80.10
2022-12-17T20:24:49.235Z,78.60
2022-12-17T20:26:23.139Z,75.80
2022-12-17T20:27:56.187Z,80.50
2022-12-17T20:29:30.750Z,85.00
2022-12-17T20:31:04.728Z,82.40
2022-12-17T20:32:38.470Z,93.20
2022-12-17T20:34:15.682Z,80.83
2022-12-17T20:35:48.568Z,93.87
2022-12-17T20:37:21.661Z,98.82
2022-12-17T20:38:54.553Z,90.95
2022-12-17T20:40:27.381Z,94.30
2022-12-17T20:42:00.293Z,93.03
2022-12-17T20:43:33.222Z,96.47
2022-12-17T20:45:08.381Z,94.70
2022-12-17T20:46:41.721Z,85.67
2022-12-17T20:49:47.423Z,67.57
2022-12-17T20:51:22.214Z,84.88
2022-12-17T20:52:55.147Z,76.67
2022-12-17T20:54:28.079Z,74.97
2022-12-17T20:56:01.873Z,80.30
2022-12-17T20:57:34.762Z,88.47
2022-12-17T20:59:09.776Z,81.07
2022-12-17T21:00:44.000Z,76.70
2022-12-17T21:02:17.392Z,78.60
2022-12-17T21:03:52.837Z,79.77
2022-12-17T21:05:26.720Z,70.63
2022-12-17T21:06:59.617Z,71.83
2022-12-17T21:08:32.519Z,89.20
2022-12-17T21:10:06.071Z,75.28
2022-12-17T21:11:40.542Z,84.17
2022-12-17T21:13:31.696Z,69.27
2022-12-17T21:15:05.066Z,77.53
2022-12-17T21:18:12.458Z,62.17
2022-12-17T21:19:45.403Z,71.80
2022-12-17T21:21:20.806Z,80.00
2022-12-17T21:22:53.729Z,67.97
2022-12-17T21:24:26.596Z,69.65
2022-12-17T21:26:03.700Z,76.03
2022-12-17T21:27:41.534Z,75.17
2022-12-17T21:29:15.388Z,76.72
2022-12-17T21:30:48.247Z,77.67
2022-12-17T21:32:22.575Z,79.00
2022-12-17T21:33:57.417Z,86.07
2022-12-17T21:35:31.942Z,83.67
2022-12-17T21:37:04.996Z,79.65
2022-12-17T21:38:43.170Z,86.80
2022-12-17T21:40:16.194Z,90.37
2022-12-17T21:42:03.582Z,84.20
2022-12-17T21:43:36.938Z,78.87
2022-12-17T21:46:43.305Z,72.77
2022-12-17T21:48:18.290Z,83.40
2022-12-17T21:49:51.111Z,79.63
2022-12-17T21:51:24.524Z,75.15
2022-12-17T21:52:57.714Z,74.33
2022-12-17T21:54:30.736Z,81.35
2022-12-17T21:56:04.834Z,79.60
2022-12-17T21:57:38.553Z,67.87
2022-12-17T21:59:12.334Z,78.63
2022-12-17T22:00:45.180Z,81.03
2022-12-17T22:04:16.592Z,68.60
2022-12-17T22:05:49.566Z,81.43
2022-12-17T22:07:24.382Z,74.78
2022-12-17T22:09:02.911Z,77.40
2022-12-17T22:10:52.365Z,72.57
2022-12-17T22:12:42.836Z,83.60
2022-12-17T22:14:20.885Z,76.77
2022-12-17T22:15:54.552Z,78.00
2022-12-17T22:19:01.154Z,64.77
2022-12-17T22:20:35.554Z,72.53
2022-12-17T22:22:09.738Z,69.43
2022-12-17T22:23:43.174Z,78.97
2022-12-17T22:25:17.352Z,72.83
2022-12-17T22:26:50.705Z,73.97
2022-12-17T22:28:23.751Z,76.82
2022-12-17T22:30:15.800Z,74.93
2022-12-17T22:32:06.120Z,73.47
2022-12-17T22:34:29.116Z,78.83
2022-12-17T22:36:48.690Z,76.67
2022-12-17T22:40:42.769Z,76.17
2022-12-17T22:41:36.417Z,76.63
2022-12-17T22:44:17.689Z,77.67
2022-12-17T22:44:42.606Z,70.97
2022-12-17T22:45:24.851Z,77.87
2022-12-17T22:46:58.145Z,67.07
2022-12-17T22:48:31.995Z,68.13
2022-12-17T22:50:05.458Z,69.23
2022-12-17T22:51:41.350Z,74.07
2022-12-17T22:53:15.257Z,73.03
2022-12-17T22:56:46.683Z,70.53
2022-12-17T22:58:15.725Z,78.93